sensor_id;sensor_type;location;lat;lon;timestamp;pressure;altitude;pressure_sealevel;temperature;humidity
40155;BME280;25875;48.202;16.334;2022-11-20T00:00:05;98744.88;;;1.02;66.10
40155;BME280;25875;48.202;16.334;2022-11-20T00:02:32;98738.78;;;1.02;66.25
40155;BME280;25875;48.202;16.334;2022-11-20T00:04:59;98724.84;;;1.03;66.34
40155;BME280;25875;48.202;16.334;2022-11-20T00:07:27;98721.34;;;1.04;66.21
40155;BME280;25875;48.202;16.334;2022-11-20T00:09:54;98730.06;;;1.03;66.29
40155;BME280;25875;48.202;16.334;2022-11-20T00:12:21;98730.88;;;1.05;66.29
40155;BME280;25875;48.202;16.334;2022-11-20T00:14:47;98699.31;;;0.81;66.23
40155;BME280;25875;48.202;16.334;2022-11-20T00:17:14;98737.72;;;1.09;66.22
40155;BME280;25875;48.202;16.334;2022-11-20T00:19:41;98738.59;;;1.09;65.92
40155;BME280;25875;48.202;16.334;2022-11-20T00:22:08;98712.91;;;0.94;65.90
40155;BME280;25875;48.202;16.334;2022-11-20T00:24:36;98604.53;;;0.17;65.86
40155;BME280;25875;48.202;16.334;2022-11-20T00:27:03;98737.78;;;1.07;66.04
40155;BME280;25875;48.202;16.334;2022-11-20T00:29:30;98696.72;;;0.81;66.00
40155;BME280;25875;48.202;16.334;2022-11-20T00:31:56;98700.19;;;0.82;65.95
40155;BME280;25875;48.202;16.334;2022-11-20T00:34:23;98743.00;;;1.07;65.97
40155;BME280;25875;48.202;16.334;2022-11-20T00:36:50;98753.41;;;1.09;65.89
40155;BME280;25875;48.202;16.334;2022-11-20T00:39:17;98722.53;;;0.92;65.93
40155;BME280;25875;48.202;16.334;2022-11-20T00:41:45;98762.94;;;1.10;65.74
40155;BME280;25875;48.202;16.334;2022-11-20T00:44:11;98761.13;;;1.12;65.55
40155;BME280;25875;48.202;16.334;2022-11-20T00:46:38;98755.91;;;1.12;65.77
40155;BME280;25875;48.202;16.334;2022-11-20T00:49:05;98773.34;;;1.11;65.72
40155;BME280;25875;48.202;16.334;2022-11-20T00:51:32;98771.59;;;1.12;65.84
40155;BME280;25875;48.202;16.334;2022-11-20T00:53:59;98692.97;;;0.59;65.40
40155;BME280;25875;48.202;16.334;2022-11-20T00:56:27;98778.50;;;1.13;65.79
40155;BME280;25875;48.202;16.334;2022-11-20T00:58:59;98782.84;;;1.14;65.71
40155;BME280;25875;48.202;16.334;2022-11-20T01:01:26;98784.50;;;1.16;65.87
40155;BME280;25875;48.202;16.334;2022-11-20T01:03:56;98761.91;;;1.15;65.83
40155;BME280;25875;48.202;16.334;2022-11-20T01:06:24;98787.97;;;1.17;65.78
40155;BME280;25875;48.202;16.334;2022-11-20T01:08:53;98689.50;;;0.58;65.63
40155;BME280;25875;48.202;16.334;2022-11-20T01:11:22;98701.72;;;0.56;65.65
40155;BME280;25875;48.202;16.334;2022-11-20T01:13:50;98759.00;;;0.93;65.60
40155;BME280;25875;48.202;16.334;2022-11-20T01:16:21;98787.25;;;1.12;65.89
40155;BME280;25875;48.202;16.334;2022-11-20T01:18:49;98791.59;;;1.11;65.82
40155;BME280;25875;48.202;16.334;2022-11-20T01:21:17;98782.84;;;1.14;66.07
40155;BME280;25875;48.202;16.334;2022-11-20T01:23:45;98783.69;;;1.14;66.04
40155;BME280;25875;48.202;16.334;2022-11-20T01:26:15;98788.88;;;1.16;66.16
40155;BME280;25875;48.202;16.334;2022-11-20T01:28:42;98788.00;;;1.15;66.17
40155;BME280;25875;48.202;16.334;2022-11-20T01:31:14;98781.09;;;1.14;66.26
40155;BME280;25875;48.202;16.334;2022-11-20T01:33:44;98663.66;;;0.49;66.12
40155;BME280;25875;48.202;16.334;2022-11-20T01:36:12;98779.38;;;1.13;66.25
40155;BME280;25875;48.202;16.334;2022-11-20T01:38:39;98735.72;;;0.86;66.30
40155;BME280;25875;48.202;16.334;2022-11-20T01:41:07;98693.13;;;0.53;66.36
40155;BME280;25875;48.202;16.334;2022-11-20T01:43:34;98779.41;;;1.12;66.30
40155;BME280;25875;48.202;16.334;2022-11-20T01:46:08;98783.78;;;1.11;66.92
40155;BME280;25875;48.202;16.334;2022-11-20T01:48:46;98674.03;;;0.51;66.43
40155;BME280;25875;48.202;16.334;2022-11-20T01:51:21;98766.41;;;1.10;66.61
40155;BME280;25875;48.202;16.334;2022-11-20T01:53:50;98701.81;;;0.52;66.33
40155;BME280;25875;48.202;16.334;2022-11-20T01:56:19;98760.28;;;1.11;66.35
40155;BME280;25875;48.202;16.334;2022-11-20T01:58:48;98775.91;;;1.13;66.46
40155;BME280;25875;48.202;16.334;2022-11-20T02:01:17;98781.09;;;1.14;66.45
40155;BME280;25875;48.202;16.334;2022-11-20T02:03:45;98601.34;;;0.06;66.36
40155;BME280;25875;48.202;16.334;2022-11-20T02:06:17;98785.50;;;1.12;66.43
40155;BME280;25875;48.202;16.334;2022-11-20T02:08:45;98786.34;;;1.13;66.12
40155;BME280;25875;48.202;16.334;2022-11-20T02:11:12;98783.72;;;1.13;66.47
40155;BME280;25875;48.202;16.334;2022-11-20T02:13:39;98790.72;;;1.12;66.56
40155;BME280;25875;48.202;16.334;2022-11-20T02:16:10;98791.66;;;1.10;66.38
40155;BME280;25875;48.202;16.334;2022-11-20T02:18:38;98783.81;;;1.10;66.57
40155;BME280;25875;48.202;16.334;2022-11-20T02:21:11;98782.06;;;1.10;66.59
40155;BME280;25875;48.202;16.334;2022-11-20T02:23:53;98788.19;;;1.09;66.92
40155;BME280;25875;48.202;16.334;2022-11-20T02:26:22;98781.38;;;1.04;66.85
40155;BME280;25875;48.202;16.334;2022-11-20T02:28:49;98782.91;;;1.11;66.99
40155;BME280;25875;48.202;16.334;2022-11-20T02:31:16;98792.53;;;1.09;66.76
40155;BME280;25875;48.202;16.334;2022-11-20T02:33:43;98794.25;;;1.10;66.85
40155;BME280;25875;48.202;16.334;2022-11-20T02:36:14;98797.81;;;1.07;66.88
40155;BME280;25875;48.202;16.334;2022-11-20T02:38:41;98789.97;;;1.07;67.04
40155;BME280;25875;48.202;16.334;2022-11-20T02:41:10;98783.13;;;1.03;67.26
40155;BME280;25875;48.202;16.334;2022-11-20T02:43:39;98725.00;;;0.64;67.21
40155;BME280;25875;48.202;16.334;2022-11-20T02:46:06;98748.94;;;0.80;67.11
40155;BME280;25875;48.202;16.334;2022-11-20T02:48:33;98784.13;;;0.98;67.19
40155;BME280;25875;48.202;16.334;2022-11-20T02:51:00;98750.88;;;0.72;67.42
40155;BME280;25875;48.202;16.334;2022-11-20T02:53:27;98781.63;;;0.93;67.37
40155;BME280;25875;48.202;16.334;2022-11-20T02:55:55;98748.16;;;0.76;67.46
40155;BME280;25875;48.202;16.334;2022-11-20T02:58:24;98777.19;;;0.97;67.56
40155;BME280;25875;48.202;16.334;2022-11-20T03:00:52;98767.56;;;0.99;67.44
40155;BME280;25875;48.202;16.334;2022-11-20T03:03:18;98735.97;;;0.77;67.37
40155;BME280;25875;48.202;16.334;2022-11-20T03:05:51;98664.75;;;0.41;67.12
40155;BME280;25875;48.202;16.334;2022-11-20T03:08:18;98763.28;;;0.96;67.35
40155;BME280;25875;48.202;16.334;2022-11-20T03:10:45;98756.31;;;0.97;66.95
40155;BME280;25875;48.202;16.334;2022-11-20T03:13:12;98744.13;;;0.97;66.87
40155;BME280;25875;48.202;16.334;2022-11-20T03:15:40;98728.47;;;0.97;66.84
40155;BME280;25875;48.202;16.334;2022-11-20T03:18:07;98729.38;;;0.96;67.02
40155;BME280;25875;48.202;16.334;2022-11-20T03:20:34;98746.75;;;0.97;67.00
40155;BME280;25875;48.202;16.334;2022-11-20T03:23:03;98737.16;;;0.98;67.03
40155;BME280;25875;48.202;16.334;2022-11-20T03:25:29;98734.50;;;0.99;66.75
40155;BME280;25875;48.202;16.334;2022-11-20T03:27:56;98729.34;;;0.98;66.90
40155;BME280;25875;48.202;16.334;2022-11-20T03:30:23;98716.28;;;0.98;67.12
40155;BME280;25875;48.202;16.334;2022-11-20T03:32:54;98735.44;;;0.97;67.19
40155;BME280;25875;48.202;16.334;2022-11-20T03:35:21;98724.25;;;0.93;67.43
40155;BME280;25875;48.202;16.334;2022-11-20T03:37:47;98733.00;;;0.90;67.51
40155;BME280;25875;48.202;16.334;2022-11-20T03:40:14;98733.91;;;0.89;67.84
40155;BME280;25875;48.202;16.334;2022-11-20T03:42:41;98670.63;;;0.49;67.94
40155;BME280;25875;48.202;16.334;2022-11-20T03:45:15;98719.69;;;0.67;67.78
40155;BME280;25875;48.202;16.334;2022-11-20T03:47:42;98730.41;;;0.90;67.95
40155;BME280;25875;48.202;16.334;2022-11-20T03:50:12;98735.56;;;0.92;68.05
40155;BME280;25875;48.202;16.334;2022-11-20T03:52:40;98730.34;;;0.92;67.83
40155;BME280;25875;48.202;16.334;2022-11-20T03:55:08;98736.44;;;0.92;67.88
40155;BME280;25875;48.202;16.334;2022-11-20T03:57:34;98733.00;;;0.90;67.95
40155;BME280;25875;48.202;16.334;2022-11-20T04:00:01;98726.94;;;0.90;67.91
40155;BME280;25875;48.202;16.334;2022-11-20T04:02:29;98722.59;;;0.89;67.78
40155;BME280;25875;48.202;16.334;2022-11-20T04:04:55;98718.28;;;0.88;67.69
40155;BME280;25875;48.202;16.334;2022-11-20T04:07:23;98690.78;;;0.76;67.46
40155;BME280;25875;48.202;16.334;2022-11-20T04:09:50;98723.41;;;0.91;67.66
40155;BME280;25875;48.202;16.334;2022-11-20T04:12:17;98494.06;;;-0.44;67.61
40155;BME280;25875;48.202;16.334;2022-11-20T04:14:44;98672.72;;;0.69;67.66
40155;BME280;25875;48.202;16.334;2022-11-20T04:17:10;98710.38;;;0.91;67.51
40155;BME280;25875;48.202;16.334;2022-11-20T04:19:37;98699.09;;;0.90;67.32
40155;BME280;25875;48.202;16.334;2022-11-20T04:22:04;98638.34;;;0.53;67.68
40155;BME280;25875;48.202;16.334;2022-11-20T04:24:32;98703.44;;;0.90;67.53
40155;BME280;25875;48.202;16.334;2022-11-20T04:27:00;98694.75;;;0.89;67.75
40155;BME280;25875;48.202;16.334;2022-11-20T04:29:26;98696.47;;;0.90;67.64
40155;BME280;25875;48.202;16.334;2022-11-20T04:31:53;98699.91;;;0.92;67.71
40155;BME280;25875;48.202;16.334;2022-11-20T04:34:20;98568.78;;;0.22;67.67
40155;BME280;25875;48.202;16.334;2022-11-20T04:36:47;98686.72;;;0.97;67.56
40155;BME280;25875;48.202;16.334;2022-11-20T04:39:14;98675.41;;;0.98;67.78
40155;BME280;25875;48.202;16.334;2022-11-20T04:41:43;98628.38;;;0.69;67.86
40155;BME280;25875;48.202;16.334;2022-11-20T04:44:10;98671.06;;;0.97;67.80
40155;BME280;25875;48.202;16.334;2022-11-20T04:46:39;98665.81;;;0.99;67.59
40155;BME280;25875;48.202;16.334;2022-11-20T04:49:07;98573.41;;;0.44;67.74
40155;BME280;25875;48.202;16.334;2022-11-20T04:51:34;98656.41;;;0.93;67.85
40155;BME280;25875;48.202;16.334;2022-11-20T04:54:00;98669.31;;;0.98;68.20
40155;BME280;25875;48.202;16.334;2022-11-20T04:56:27;98656.31;;;0.96;68.21
40155;BME280;25875;48.202;16.334;2022-11-20T04:58:55;98655.41;;;0.97;68.22
40155;BME280;25875;48.202;16.334;2022-11-20T05:01:25;98656.28;;;0.98;68.16
40155;BME280;25875;48.202;16.334;2022-11-20T05:03:52;98657.19;;;0.97;68.17
40155;BME280;25875;48.202;16.334;2022-11-20T05:06:22;98609.50;;;0.59;68.33
40155;BME280;25875;48.202;16.334;2022-11-20T05:08:49;98651.16;;;0.94;68.28
40155;BME280;25875;48.202;16.334;2022-11-20T05:11:18;98659.81;;;0.95;68.42
40155;BME280;25875;48.202;16.334;2022-11-20T05:13:45;98663.28;;;0.96;68.47
40155;BME280;25875;48.202;16.334;2022-11-20T05:16:14;98664.06;;;0.99;68.55
40155;BME280;25875;48.202;16.334;2022-11-20T05:18:41;98660.56;;;1.00;68.85
40155;BME280;25875;48.202;16.334;2022-11-20T05:21:09;98361.78;;;-0.96;69.02
40155;BME280;25875;48.202;16.334;2022-11-20T05:23:36;98675.19;;;1.06;69.16
40155;BME280;25875;48.202;16.334;2022-11-20T05:26:05;98673.38;;;1.08;69.65
40155;BME280;25875;48.202;16.334;2022-11-20T05:28:32;98280.31;;;-1.32;69.41
40155;BME280;25875;48.202;16.334;2022-11-20T05:31:04;98673.34;;;1.09;70.02
40155;BME280;25875;48.202;16.334;2022-11-20T05:33:33;98669.84;;;1.10;69.85
40155;BME280;25875;48.202;16.334;2022-11-20T05:36:00;98680.28;;;1.10;69.90
40155;BME280;25875;48.202;16.334;2022-11-20T05:38:27;98588.00;;;0.51;70.05
40155;BME280;25875;48.202;16.334;2022-11-20T05:40:54;98687.25;;;1.10;70.09
40155;BME280;25875;48.202;16.334;2022-11-20T05:43:21;98686.34;;;1.11;69.99
40155;BME280;25875;48.202;16.334;2022-11-20T05:45:53;98659.81;;;0.95;70.32
40155;BME280;25875;48.202;16.334;2022-11-20T05:48:20;98689.78;;;1.13;70.17
40155;BME280;25875;48.202;16.334;2022-11-20T05:50:49;98685.47;;;1.12;70.08
40155;BME280;25875;48.202;16.334;2022-11-20T05:53:15;98680.19;;;1.13;70.07
40155;BME280;25875;48.202;16.334;2022-11-20T05:55:42;98687.97;;;1.15;70.26
40155;BME280;25875;48.202;16.334;2022-11-20T05:58:09;98687.94;;;1.16;70.18
40155;BME280;25875;48.202;16.334;2022-11-20T06:00:35;98684.47;;;1.16;70.24
40155;BME280;25875;48.202;16.334;2022-11-20T06:03:03;98687.91;;;1.18;70.28
40155;BME280;25875;48.202;16.334;2022-11-20T06:05:29;98695.72;;;1.18;70.23
40155;BME280;25875;48.202;16.334;2022-11-20T06:07:57;98694.00;;;1.17;70.29
40155;BME280;25875;48.202;16.334;2022-11-20T06:10:26;98659.09;;;0.90;70.21
40155;BME280;25875;48.202;16.334;2022-11-20T06:12:53;98695.81;;;1.15;70.19
40155;BME280;25875;48.202;16.334;2022-11-20T06:15:20;98525.16;;;-0.04;70.21
40155;BME280;25875;48.202;16.334;2022-11-20T06:17:46;98706.25;;;1.15;70.21
40155;BME280;25875;48.202;16.334;2022-11-20T06:20:13;98707.16;;;1.14;70.47
40155;BME280;25875;48.202;16.334;2022-11-20T06:22:40;98708.84;;;1.15;70.59
40155;BME280;25875;48.202;16.334;2022-11-20T06:25:09;98705.41;;;1.14;70.80
40155;BME280;25875;48.202;16.334;2022-11-20T06:27:35;98705.41;;;1.14;70.66
40155;BME280;25875;48.202;16.334;2022-11-20T06:30:02;98702.81;;;1.13;70.62
40155;BME280;25875;48.202;16.334;2022-11-20T06:32:29;98714.16;;;1.12;70.70
40155;BME280;25875;48.202;16.334;2022-11-20T06:34:56;98712.44;;;1.11;71.13
40155;BME280;25875;48.202;16.334;2022-11-20T06:37:23;98724.59;;;1.12;71.19
40155;BME280;25875;48.202;16.334;2022-11-20T06:39:49;98731.56;;;1.11;70.94
40155;BME280;25875;48.202;16.334;2022-11-20T06:42:17;98733.34;;;1.11;71.13
40155;BME280;25875;48.202;16.334;2022-11-20T06:44:44;98739.41;;;1.11;70.94
40155;BME280;25875;48.202;16.334;2022-11-20T06:47:11;98744.63;;;1.11;71.12
40155;BME280;25875;48.202;16.334;2022-11-20T06:49:37;98735.94;;;1.11;71.16
40155;BME280;25875;48.202;16.334;2022-11-20T06:52:04;98745.53;;;1.10;71.29
40155;BME280;25875;48.202;16.334;2022-11-20T06:54:31;98749.88;;;1.10;71.08
40155;BME280;25875;48.202;16.334;2022-11-20T06:56:58;98748.09;;;1.12;70.95
40155;BME280;25875;48.202;16.334;2022-11-20T06:59:26;98759.38;;;1.12;71.22
40155;BME280;25875;48.202;16.334;2022-11-20T07:01:52;98759.34;;;1.14;71.17
40155;BME280;25875;48.202;16.334;2022-11-20T07:04:19;98762.84;;;1.13;71.16
40155;BME280;25875;48.202;16.334;2022-11-20T07:06:46;98767.13;;;1.15;71.14
40155;BME280;25875;48.202;16.334;2022-11-20T07:09:13;98769.75;;;1.15;70.85
40155;BME280;25875;48.202;16.334;2022-11-20T07:11:39;98764.53;;;1.15;71.07
40155;BME280;25875;48.202;16.334;2022-11-20T07:14:06;98761.03;;;1.16;70.95
40155;BME280;25875;48.202;16.334;2022-11-20T07:16:34;98742.22;;;1.04;71.08
40155;BME280;25875;48.202;16.334;2022-11-20T07:19:01;98666.81;;;0.62;70.95
40155;BME280;25875;48.202;16.334;2022-11-20T07:21:29;98768.81;;;1.18;71.04
40155;BME280;25875;48.202;16.334;2022-11-20T07:23:55;98765.34;;;1.17;71.16
40155;BME280;25875;48.202;16.334;2022-11-20T07:26:22;98771.41;;;1.18;71.09
40155;BME280;25875;48.202;16.334;2022-11-20T07:28:49;98700.31;;;0.77;71.27
40155;BME280;25875;48.202;16.334;2022-11-20T07:31:16;98212.94;;;-2.12;70.98
40155;BME280;25875;48.202;16.334;2022-11-20T07:33:44;98771.41;;;1.18;71.28
40155;BME280;25875;48.202;16.334;2022-11-20T07:36:11;98775.78;;;1.17;71.27
40155;BME280;25875;48.202;16.334;2022-11-20T07:38:38;98774.88;;;1.18;71.45
40155;BME280;25875;48.202;16.334;2022-11-20T07:41:04;98532.94;;;-0.36;71.23
40155;BME280;25875;48.202;16.334;2022-11-20T07:43:31;98776.56;;;1.21;71.25
40155;BME280;25875;48.202;16.334;2022-11-20T07:45:58;98785.28;;;1.20;71.19
40155;BME280;25875;48.202;16.334;2022-11-20T07:48:25;98791.38;;;1.20;70.83
40155;BME280;25875;48.202;16.334;2022-11-20T07:50:55;98799.16;;;1.22;71.07
40155;BME280;25875;48.202;16.334;2022-11-20T07:53:22;98789.56;;;1.22;71.38
40155;BME280;25875;48.202;16.334;2022-11-20T07:55:48;98788.72;;;1.22;71.35
40155;BME280;25875;48.202;16.334;2022-11-20T07:58:17;98738.09;;;0.95;71.34
40155;BME280;25875;48.202;16.334;2022-11-20T08:00:44;98793.84;;;1.25;71.52
40155;BME280;25875;48.202;16.334;2022-11-20T08:03:14;98783.38;;;1.26;71.24
40155;BME280;25875;48.202;16.334;2022-11-20T08:05:41;98789.50;;;1.25;71.32
40155;BME280;25875;48.202;16.334;2022-11-20T08:08:09;98784.44;;;1.19;71.32
40155;BME280;25875;48.202;16.334;2022-11-20T08:10:36;98787.91;;;1.20;71.24
40155;BME280;25875;48.202;16.334;2022-11-20T08:13:03;98633.19;;;0.17;71.42
40155;BME280;25875;48.202;16.334;2022-11-20T08:15:49;98784.34;;;1.22;71.65
40155;BME280;25875;48.202;16.334;2022-11-20T08:18:17;98788.59;;;1.26;71.73
40155;BME280;25875;48.202;16.334;2022-11-20T08:20:44;98821.59;;;1.29;71.73
40155;BME280;25875;48.202;16.334;2022-11-20T08:23:13;98793.72;;;1.30;71.63
40155;BME280;25875;48.202;16.334;2022-11-20T08:25:40;98669.50;;;0.59;71.63
40155;BME280;25875;48.202;16.334;2022-11-20T08:28:08;98715.97;;;0.77;71.70
40155;BME280;25875;48.202;16.334;2022-11-20T08:30:36;98727.69;;;0.93;71.59
40155;BME280;25875;48.202;16.334;2022-11-20T08:33:05;98788.38;;;1.34;71.60
40155;BME280;25875;48.202;16.334;2022-11-20T08:35:34;98791.91;;;1.33;71.69
40155;BME280;25875;48.202;16.334;2022-11-20T08:38:01;98659.13;;;0.56;71.68
40155;BME280;25875;48.202;16.334;2022-11-20T08:40:29;98791.03;;;1.33;71.78
40155;BME280;25875;48.202;16.334;2022-11-20T08:42:56;98790.97;;;1.36;71.87
40155;BME280;25875;48.202;16.334;2022-11-20T08:45:23;98789.19;;;1.36;71.94
40155;BME280;25875;48.202;16.334;2022-11-20T08:47:49;98760.97;;;1.18;71.78
40155;BME280;25875;48.202;16.334;2022-11-20T08:50:16;98795.19;;;1.40;71.49
40155;BME280;25875;48.202;16.334;2022-11-20T08:52:44;98803.06;;;1.38;71.55
40155;BME280;25875;48.202;16.334;2022-11-20T08:55:11;98608.25;;;0.07;71.45
40155;BME280;25875;48.202;16.334;2022-11-20T08:57:39;98796.81;;;1.44;71.38
40155;BME280;25875;48.202;16.334;2022-11-20T09:00:07;98790.97;;;1.36;71.29
40155;BME280;25875;48.202;16.334;2022-11-20T09:02:34;98785.44;;;1.46;71.34
40155;BME280;25875;48.202;16.334;2022-11-20T09:05:01;98797.63;;;1.46;71.38
40155;BME280;25875;48.202;16.334;2022-11-20T09:07:28;98779.34;;;1.46;71.42
40155;BME280;25875;48.202;16.334;2022-11-20T09:09:55;98772.47;;;1.43;71.59
40155;BME280;25875;48.202;16.334;2022-11-20T09:12:22;98780.34;;;1.42;71.57
40155;BME280;25875;48.202;16.334;2022-11-20T09:14:50;98746.09;;;1.21;71.47
40155;BME280;25875;48.202;16.334;2022-11-20T09:17:17;98778.41;;;1.48;71.57
40155;BME280;25875;48.202;16.334;2022-11-20T09:19:45;98635.25;;;0.71;71.53
40155;BME280;25875;48.202;16.334;2022-11-20T09:22:12;98773.06;;;1.53;71.61
40155;BME280;25875;48.202;16.334;2022-11-20T09:24:39;98780.84;;;1.54;71.52
40155;BME280;25875;48.202;16.334;2022-11-20T09:27:06;98770.50;;;1.51;71.56
40155;BME280;25875;48.202;16.334;2022-11-20T09:29:32;98763.53;;;1.52;71.57
40155;BME280;25875;48.202;16.334;2022-11-20T09:32:00;98772.25;;;1.51;71.91
40155;BME280;25875;48.202;16.334;2022-11-20T09:34:27;98764.47;;;1.49;71.78
40155;BME280;25875;48.202;16.334;2022-11-20T09:36:54;98751.03;;;1.32;71.94
40155;BME280;25875;48.202;16.334;2022-11-20T09:39:21;98781.81;;;1.52;71.91
40155;BME280;25875;48.202;16.334;2022-11-20T09:42:09;98707.16;;;1.14;72.35
40155;BME280;25875;48.202;16.334;2022-11-20T09:45:02;98770.50;;;1.51;72.42
40155;BME280;25875;48.202;16.334;2022-11-20T09:47:41;98770.53;;;1.50;72.44
40155;BME280;25875;48.202;16.334;2022-11-20T09:50:19;98767.94;;;1.50;72.20
40155;BME280;25875;48.202;16.334;2022-11-20T09:53:05;98761.00;;;1.49;72.59
40155;BME280;25875;48.202;16.334;2022-11-20T09:55:35;98766.22;;;1.49;72.11
40155;BME280;25875;48.202;16.334;2022-11-20T09:58:05;98760.94;;;1.50;72.21
40155;BME280;25875;48.202;16.334;2022-11-20T10:00:34;98754.03;;;1.49;72.18
40155;BME280;25875;48.202;16.334;2022-11-20T10:03:10;98754.88;;;1.50;72.27
40155;BME280;25875;48.202;16.334;2022-11-20T10:05:42;98752.25;;;1.50;72.46
40155;BME280;25875;48.202;16.334;2022-11-20T10:08:16;98752.22;;;1.51;72.44
40155;BME280;25875;48.202;16.334;2022-11-20T10:10:47;98760.81;;;1.55;72.26
40155;BME280;25875;48.202;16.334;2022-11-20T10:13:30;98741.69;;;1.54;72.85
40155;BME280;25875;48.202;16.334;2022-11-20T10:16:11;98697.03;;;1.33;72.54
40155;BME280;25875;48.202;16.334;2022-11-20T10:18:51;98741.63;;;1.56;72.63
40155;BME280;25875;48.202;16.334;2022-11-20T10:21:26;98736.50;;;1.53;72.31
40155;BME280;25875;48.202;16.334;2022-11-20T10:24:12;98733.88;;;1.53;72.53
40155;BME280;25875;48.202;16.334;2022-11-20T10:26:54;98751.22;;;1.55;72.67
40155;BME280;25875;48.202;16.334;2022-11-20T10:29:29;98745.06;;;1.58;72.60
40155;BME280;25875;48.202;16.334;2022-11-20T10:32:02;98733.72;;;1.61;72.29
40155;BME280;25875;48.202;16.334;2022-11-20T10:34:34;98734.56;;;1.61;72.14
40155;BME280;25875;48.202;16.334;2022-11-20T10:37:09;98740.63;;;1.62;72.17
40155;BME280;25875;48.202;16.334;2022-11-20T10:39:42;98738.03;;;1.62;72.48
40155;BME280;25875;48.202;16.334;2022-11-20T10:42:13;98729.34;;;1.61;72.24
40155;BME280;25875;48.202;16.334;2022-11-20T10:44:49;98726.69;;;1.63;72.43
40155;BME280;25875;48.202;16.334;2022-11-20T10:47:28;98716.97;;;1.68;72.29
40155;BME280;25875;48.202;16.334;2022-11-20T10:50:02;98647.81;;;1.20;72.55
40155;BME280;25875;48.202;16.334;2022-11-20T10:52:37;98730.72;;;1.73;72.64
40155;BME280;25875;48.202;16.334;2022-11-20T10:55:13;98702.41;;;1.57;72.64
40155;BME280;25875;48.202;16.334;2022-11-20T10:57:53;98728.00;;;1.77;72.72
40155;BME280;25875;48.202;16.334;2022-11-20T11:00:23;98714.91;;;1.77;72.29
40155;BME280;25875;48.202;16.334;2022-11-20T11:02:52;98726.13;;;1.81;72.28
40155;BME280;25875;48.202;16.334;2022-11-20T11:05:33;98713.84;;;1.84;72.84
40155;BME280;25875;48.202;16.334;2022-11-20T11:08:03;98704.16;;;1.88;72.23
40155;BME280;25875;48.202;16.334;2022-11-20T11:10:37;98711.03;;;1.90;72.47
40155;BME280;25875;48.202;16.334;2022-11-20T11:13:07;98704.88;;;1.93;72.07
40155;BME280;25875;48.202;16.334;2022-11-20T11:15:45;98710.00;;;1.96;72.17
40155;BME280;25875;48.202;16.334;2022-11-20T11:18:24;98700.34;;;1.98;72.61
40155;BME280;25875;48.202;16.334;2022-11-20T11:20:55;98702.88;;;2.01;72.21
40155;BME280;25875;48.202;16.334;2022-11-20T11:23:31;98708.00;;;2.04;72.64
40155;BME280;25875;48.202;16.334;2022-11-20T11:26:00;98612.06;;;1.52;72.23
40155;BME280;25875;48.202;16.334;2022-11-20T11:28:28;98699.22;;;2.07;72.31
40155;BME280;25875;48.202;16.334;2022-11-20T11:30:55;98551.41;;;1.14;72.13
40155;BME280;25875;48.202;16.334;2022-11-20T11:33:24;98653.97;;;1.77;72.34
40155;BME280;25875;48.202;16.334;2022-11-20T11:35:55;98479.19;;;0.57;72.39
40155;BME280;25875;48.202;16.334;2022-11-20T11:38:29;98701.69;;;2.11;72.73
40155;BME280;25875;48.202;16.334;2022-11-20T11:40:57;98698.97;;;2.14;72.64
40155;BME280;25875;48.202;16.334;2022-11-20T11:43:26;98692.78;;;2.17;72.57
40155;BME280;25875;48.202;16.334;2022-11-20T11:46:27;98663.66;;;2.01;73.32
40155;BME280;25875;48.202;16.334;2022-11-20T11:48:56;98687.25;;;2.26;72.59
40155;BME280;25875;48.202;16.334;2022-11-20T11:51:26;98691.50;;;2.30;72.82
40155;BME280;25875;48.202;16.334;2022-11-20T11:53:57;98690.44;;;2.36;72.72
40155;BME280;25875;48.202;16.334;2022-11-20T11:56:25;98684.97;;;2.43;72.72
40155;BME280;25875;48.202;16.334;2022-11-20T11:58:56;98674.09;;;2.55;72.80
40155;BME280;25875;48.202;16.334;2022-11-20T12:01:31;98673.63;;;2.69;72.93
40155;BME280;25875;48.202;16.334;2022-11-20T12:04:04;98553.91;;;2.26;73.01
40155;BME280;25875;48.202;16.334;2022-11-20T12:06:39;98664.78;;;3.22;72.38
40155;BME280;25875;48.202;16.334;2022-11-20T12:09:10;98583.13;;;2.87;71.20
40155;BME280;25875;48.202;16.334;2022-11-20T12:11:39;98661.03;;;3.52;71.05
40155;BME280;25875;48.202;16.334;2022-11-20T12:14:14;98610.91;;;3.38;71.01
40155;BME280;25875;48.202;16.334;2022-11-20T12:16:44;98630.38;;;3.54;70.55
40155;BME280;25875;48.202;16.334;2022-11-20T12:19:13;98685.69;;;3.70;70.17
40155;BME280;25875;48.202;16.334;2022-11-20T12:21:50;98652.84;;;4.05;69.85
40155;BME280;25875;48.202;16.334;2022-11-20T12:24:35;98554.03;;;3.63;70.10
40155;BME280;25875;48.202;16.334;2022-11-20T12:27:23;98655.38;;;4.30;69.38
40155;BME280;25875;48.202;16.334;2022-11-20T12:30:01;98488.06;;;3.53;68.98
40155;BME280;25875;48.202;16.334;2022-11-20T12:32:52;98650.22;;;4.69;68.59
40155;BME280;25875;48.202;16.334;2022-11-20T12:35:37;98604.41;;;4.35;67.79
40155;BME280;25875;48.202;16.334;2022-11-20T12:38:36;98651.13;;;4.90;68.22
40155;BME280;25875;48.202;16.334;2022-11-20T12:41:15;98655.56;;;5.08;67.50
40155;BME280;25875;48.202;16.334;2022-11-20T12:44:16;98642.94;;;5.16;67.11
40155;BME280;25875;48.202;16.334;2022-11-20T12:47:11;98632.38;;;5.18;66.62
40155;BME280;25875;48.202;16.334;2022-11-20T12:49:45;98633.88;;;5.23;66.87
40155;BME280;25875;48.202;16.334;2022-11-20T12:52:24;98627.47;;;5.29;66.64
40155;BME280;25875;48.202;16.334;2022-11-20T12:55:08;98590.34;;;5.18;66.13
40155;BME280;25875;48.202;16.334;2022-11-20T12:57:48;98625.06;;;5.43;66.04
40155;BME280;25875;48.202;16.334;2022-11-20T13:00:18;98620.47;;;5.48;66.37
40155;BME280;25875;48.202;16.334;2022-11-20T13:03:23;98611.38;;;5.55;65.59
40155;BME280;25875;48.202;16.334;2022-11-20T13:06:05;98562.50;;;5.32;65.73
40155;BME280;25875;48.202;16.334;2022-11-20T13:08:35;98611.88;;;5.63;66.05
40155;BME280;25875;48.202;16.334;2022-11-20T13:11:11;98609.09;;;5.66;65.33
40155;BME280;25875;48.202;16.334;2022-11-20T13:13:59;98478.28;;;4.79;65.48